Time;durP1;ratioP1;P1;durP2;ratioP2;P2;SDS_P1;SDS_P2;PMS_P1;PMS_P2;Temp;Humidity;BMP_temperature;BMP_pressure;BME280_temperature;BME280_humidity;BME280_pressure;Samples;Min_cycle;Max_cycle;Signal;HPM_P1;HPM_P2
2022/04/05 00:02:15;;;;;;;14.27;13.00;;;;;;;;;;4969229;28;20058;-69
2022/04/05 00:04:41;;;;;;;13.57;12.30;;;;;;;;;;4968326;28;20062;-69
2022/04/05 00:07:07;;;;;;;13.85;12.73;;;;;;;;;;4973408;28;20034;-69
2022/04/05 00:09:33;;;;;;;13.98;12.68;;;;;;;;;;4972077;28;20042;-69
2022/04/05 00:11:58;;;;;;;15.23;13.80;;;;;;;;;;4971994;28;20114;-69
2022/04/05 00:14:24;;;;;;;15.90;14.40;;;;;;;;;;4966870;28;20027;-69
2022/04/05 00:16:50;;;;;;;14.45;13.02;;;;;;;;;;4972091;28;20239;-69
2022/04/05 00:19:15;;;;;;;15.40;14.00;;;;;;;;;;4974475;28;20525;-69
2022/04/05 00:21:41;;;;;;;14.55;13.15;;;;;;;;;;4967925;28;20453;-69
2022/04/05 00:24:07;;;;;;;15.15;13.85;;;;;;;;;;4970695;28;20031;-69
2022/04/05 00:26:34;;;;;;;14.30;13.00;;;;;;;;;;4969112;28;20039;-69
2022/04/05 00:29:00;;;;;;;15.55;14.05;;;;;;;;;;4970710;28;20031;-69
2022/04/05 00:31:25;;;;;;;15.50;14.05;;;;;;;;;;4970901;28;20453;-69
2022/04/05 00:33:51;;;;;;;13.98;12.80;;;;;;;;;;4969573;28;20729;-69
2022/04/05 00:36:16;;;;;;;14.20;12.88;;;;;;;;;;4979572;28;20402;-69
2022/04/05 00:38:42;;;;;;;15.40;14.00;;;;;;;;;;4970766;28;20046;-69
2022/04/05 00:41:08;;;;;;;16.15;14.73;;;;;;;;;;4968970;28;20532;-69
2022/04/05 00:43:33;;;;;;;14.73;13.48;;;;;;;;;;4969755;28;20059;-69
2022/04/05 00:45:59;;;;;;;17.15;14.63;;;;;;;;;;4964685;28;20039;-69
2022/04/05 00:48:46;;;;;;;15.07;13.68;;;;;;;;;;4970474;28;20042;-69
2022/04/05 00:51:13;;;;;;;14.70;13.50;;;;;;;;;;4968881;28;20081;-70
2022/04/05 00:53:39;;;;;;;15.50;14.00;;;;;;;;;;4970583;28;20063;-69
2022/04/05 00:56:06;;;;;;;15.82;14.48;;;;;;;;;;4970563;28;20038;-69
2022/04/05 00:58:33;;;;;;;15.23;13.93;;;;;;;;;;4961269;28;20659;-69
2022/04/05 01:00:58;;;;;;;14.55;13.35;;;;;;;;;;4951468;28;20454;-69
2022/04/05 01:03:26;;;;;;;15.38;13.90;;;;;;;;;;4952344;28;20035;-70
2022/04/05 01:05:52;;;;;;;14.63;13.40;;;;;;;;;;4969683;28;20089;-69
2022/04/05 01:08:19;;;;;;;14.40;13.20;;;;;;;;;;4967332;28;20047;-69
2022/04/05 01:10:46;;;;;;;15.50;14.10;;;;;;;;;;4969521;28;20039;-69
2022/04/05 01:13:11;;;;;;;14.77;13.07;;;;;;;;;;4978591;28;20382;-69
2022/04/05 01:15:39;;;;;;;15.07;13.68;;;;;;;;;;4966699;28;20571;-69
2022/04/05 01:18:05;;;;;;;15.23;13.90;;;;;;;;;;4969226;28;20491;-69
2022/04/05 01:20:32;;;;;;;14.50;13.20;;;;;;;;;;4976475;28;20049;-69
2022/04/05 01:22:58;;;;;;;14.07;12.65;;;;;;;;;;4971635;28;20486;-69
2022/04/05 01:25:24;;;;;;;13.48;12.38;;;;;;;;;;4969445;28;20027;-69
2022/04/05 01:27:51;;;;;;;14.68;13.48;;;;;;;;;;4970233;28;20037;-69
2022/04/05 01:30:17;;;;;;;15.43;14.00;;;;;;;;;;4976114;28;20369;-69
2022/04/05 01:32:43;;;;;;;14.95;13.55;;;;;;;;;;4972717;28;20550;-69
2022/04/05 01:35:10;;;;;;;12.77;11.82;;;;;;;;;;4969358;28;20173;-69
2022/04/05 01:37:35;;;;;;;15.93;14.40;;;;;;;;;;4973780;28;20070;-70
2022/04/05 01:40:01;;;;;;;13.38;12.18;;;;;;;;;;4974519;28;20100;-69
2022/04/05 01:42:27;;;;;;;14.55;13.15;;;;;;;;;;4963457;28;20049;-69
2022/04/05 01:44:52;;;;;;;16.10;14.73;;;;;;;;;;4969089;28;20038;-69
2022/04/05 01:47:18;;;;;;;14.95;13.57;;;;;;;;;;4972032;28;20041;-69
2022/04/05 01:49:48;;;;;;;15.73;14.27;;;;;;;;;;4969462;28;20163;-69
2022/04/05 01:52:14;;;;;;;14.77;13.50;;;;;;;;;;4967068;28;20367;-69
2022/04/05 01:54:40;;;;;;;14.60;13.30;;;;;;;;;;4973913;28;20026;-69
2022/04/05 01:57:07;;;;;;;15.20;13.80;;;;;;;;;;4969741;28;20074;-69
2022/04/05 01:59:36;;;;;;;15.00;13.68;;;;;;;;;;4967174;28;20097;-69
2022/04/05 02:02:06;;;;;;;16.95;15.25;;;;;;;;;;4972023;28;20459;-69
2022/04/05 02:04:32;;;;;;;15.52;14.30;;;;;;;;;;4968380;28;20031;-69
2022/04/05 02:06:58;;;;;;;13.70;12.50;;;;;;;;;;4960460;28;20547;-69
2022/04/05 02:09:24;;;;;;;15.38;13.98;;;;;;;;;;4969030;28;20030;-69
2022/04/05 02:11:49;;;;;;;14.50;13.05;;;;;;;;;;4995405;23;20052;-73
2022/04/05 02:14:43;;;;;;;16.15;14.73;;;;;;;;;;5001609;28;20048;-73
2022/04/05 02:17:15;;;;;;;15.65;14.13;;;;;;;;;;4989062;28;20030;-73
2022/04/05 02:19:43;;;;;;;15.18;13.63;;;;;;;;;;4994429;28;20046;-73
2022/04/05 02:22:11;;;;;;;14.70;13.33;;;;;;;;;;5003379;28;20054;-73
2022/04/05 02:24:38;;;;;;;14.93;13.60;;;;;;;;;;4976035;28;20368;-74
2022/04/05 02:27:06;;;;;;;16.17;14.55;;;;;;;;;;5006181;28;20029;-74
2022/04/05 02:29:34;;;;;;;15.10;13.70;;;;;;;;;;5007887;28;20569;-74
2022/04/05 02:32:06;;;;;;;14.95;13.27;;;;;;;;;;4994859;28;20196;-74
2022/04/05 02:34:33;;;;;;;14.75;13.27;;;;;;;;;;5009327;28;20041;-75
2022/04/05 02:37:01;;;;;;;14.40;12.88;;;;;;;;;;5001674;28;20715;-75
2022/04/05 02:39:27;;;;;;;14.32;12.82;;;;;;;;;;5001522;28;20034;-75
2022/04/05 02:41:57;;;;;;;12.45;11.20;;;;;;;;;;4991851;28;20050;-75
2022/04/05 02:44:23;;;;;;;13.07;11.88;;;;;;;;;;5008153;28;20144;-75
2022/04/05 02:46:55;;;;;;;14.02;12.63;;;;;;;;;;4996303;28;20098;-74
2022/04/05 02:49:22;;;;;;;13.73;12.40;;;;;;;;;;5002535;28;20036;-74
2022/04/05 02:51:48;;;;;;;14.38;13.00;;;;;;;;;;4999258;28;20042;-75
2022/04/05 02:54:21;;;;;;;13.07;11.80;;;;;;;;;;5005034;28;20030;-74
2022/04/05 02:56:50;;;;;;;12.80;11.48;;;;;;;;;;5004234;28;20524;-74
2022/04/05 02:59:16;;;;;;;12.82;11.57;;;;;;;;;;5004207;28;20042;-74
2022/04/05 03:01:44;;;;;;;14.13;12.00;;;;;;;;;;5002344;28;20037;-74
2022/04/05 03:04:13;;;;;;;11.50;10.52;;;;;;;;;;5005627;28;20068;-74
2022/04/05 03:06:39;;;;;;;13.70;12.45;;;;;;;;;;5005694;28;20030;-74
2022/04/05 03:09:06;;;;;;;14.23;12.52;;;;;;;;;;5004897;28;20044;-74
2022/04/05 03:11:33;;;;;;;12.77;11.48;;;;;;;;;;4996893;28;20038;-74
2022/04/05 03:13:59;;;;;;;15.27;13.40;;;;;;;;;;5003650;28;20056;-74
2022/04/05 03:16:26;;;;;;;14.30;12.68;;;;;;;;;;5007108;28;20045;-73
2022/04/05 03:18:54;;;;;;;12.43;11.27;;;;;;;;;;4991657;28;20045;-74
2022/04/05 03:21:21;;;;;;;14.07;12.70;;;;;;;;;;5007152;28;20416;-74
2022/04/05 03:23:47;;;;;;;15.73;14.20;;;;;;;;;;4985609;28;20037;-74
2022/04/05 03:26:12;;;;;;;15.15;13.80;;;;;;;;;;5006932;28;20033;-74
2022/04/05 03:28:39;;;;;;;14.45;13.25;;;;;;;;;;4988759;28;20037;-74
2022/04/05 03:31:04;;;;;;;15.88;14.32;;;;;;;;;;5011581;28;20088;-74
2022/04/05 03:33:31;;;;;;;15.07;13.68;;;;;;;;;;5008808;28;20117;-74
2022/04/05 03:35:58;;;;;;;14.57;13.18;;;;;;;;;;5008046;28;20038;-73
2022/04/05 03:38:27;;;;;;;16.48;14.88;;;;;;;;;;5001861;28;20428;-73
2022/04/05 03:40:54;;;;;;;17.15;15.55;;;;;;;;;;5004986;28;20095;-72
2022/04/05 03:43:20;;;;;;;16.38;14.82;;;;;;;;;;5003927;28;20420;-73
2022/04/05 03:45:50;;;;;;;16.60;14.95;;;;;;;;;;4989011;28;20054;-73
2022/04/05 03:48:16;;;;;;;16.02;14.63;;;;;;;;;;5011700;28;20152;-73
2022/04/05 03:50:43;;;;;;;16.98;15.18;;;;;;;;;;5007585;28;20400;-73
2022/04/05 03:53:10;;;;;;;15.30;13.70;;;;;;;;;;4997190;28;20045;-73
2022/04/05 03:55:36;;;;;;;17.98;16.27;;;;;;;;;;5007031;28;20777;-73
2022/04/05 03:58:05;;;;;;;18.55;16.92;;;;;;;;;;5003811;28;20496;-73
2022/04/05 04:00:31;;;;;;;17.63;15.93;;;;;;;;;;4999871;28;20084;-73
2022/04/05 04:03:19;;;;;;;17.00;15.50;;;;;;;;;;5000652;28;20030;-73
2022/04/05 04:05:47;;;;;;;19.92;16.70;;;;;;;;;;4987581;28;20052;-72
2022/04/05 04:08:13;;;;;;;16.83;15.18;;;;;;;;;;5007369;28;20072;-72
2022/04/05 04:10:40;;;;;;;18.55;16.65;;;;;;;;;;5004627;28;20073;-73
2022/04/05 04:13:07;;;;;;;18.00;16.17;;;;;;;;;;5004636;28;20517;-72
2022/04/05 04:15:38;;;;;;;17.25;15.68;;;;;;;;;;5002521;28;20481;-72
2022/04/05 04:18:04;;;;;;;16.77;15.18;;;;;;;;;;5007305;28;20077;-74
2022/04/05 04:20:32;;;;;;;16.40;15.02;;;;;;;;;;4985318;28;20045;-74
2022/04/05 04:22:59;;;;;;;17.15;15.43;;;;;;;;;;5018347;28;20033;-74
2022/04/05 04:25:25;;;;;;;17.55;15.93;;;;;;;;;;5000694;28;20030;-75
2022/04/05 04:27:51;;;;;;;17.27;15.63;;;;;;;;;;5004106;28;20496;-75
2022/04/05 04:30:17;;;;;;;17.15;15.52;;;;;;;;;;5002263;28;20048;-75
2022/04/05 04:32:43;;;;;;;17.70;16.00;;;;;;;;;;4997867;28;20034;-75
2022/04/05 04:35:08;;;;;;;17.98;16.48;;;;;;;;;;4977753;28;20053;-75
2022/04/05 04:37:35;;;;;;;17.20;15.60;;;;;;;;;;4995935;28;20074;-75
2022/04/05 04:40:01;;;;;;;17.40;15.98;;;;;;;;;;4997269;28;20050;-74
2022/04/05 04:42:26;;;;;;;17.67;15.82;;;;;;;;;;4992946;28;20441;-74
2022/04/05 04:44:52;;;;;;;17.23;15.63;;;;;;;;;;4994816;28;20034;-74
2022/04/05 04:47:18;;;;;;;16.92;15.43;;;;;;;;;;4996679;28;20084;-74
2022/04/05 04:49:44;;;;;;;17.83;15.85;;;;;;;;;;4999751;28;20037;-74
2022/04/05 04:52:10;;;;;;;19.40;17.67;;;;;;;;;;5004763;28;20065;-73
2022/04/05 04:54:36;;;;;;;18.02;16.42;;;;;;;;;;5007537;28;20068;-73
2022/04/05 04:57:02;;;;;;;19.58;16.92;;;;;;;;;;5003860;28;20046;-73
2022/04/05 04:59:27;;;;;;;17.35;15.80;;;;;;;;;;4992756;28;20089;-72
2022/04/05 05:01:53;;;;;;;16.92;15.32;;;;;;;;;;4993608;28;20134;-72
2022/04/05 05:04:19;;;;;;;17.17;15.70;;;;;;;;;;5001878;28;20034;-72
2022/04/05 05:06:44;;;;;;;17.98;16.48;;;;;;;;;;5003506;28;20045;-72
2022/04/05 05:09:10;;;;;;;18.23;16.48;;;;;;;;;;4990696;28;20037;-72
2022/04/05 05:11:36;;;;;;;18.88;17.08;;;;;;;;;;5000997;28;20038;-72
2022/04/05 05:14:02;;;;;;;17.75;16.20;;;;;;;;;;5003719;28;20042;-72
2022/04/05 05:16:28;;;;;;;16.92;15.32;;;;;;;;;;4996807;28;20388;-72
2022/04/05 05:18:53;;;;;;;16.77;15.13;;;;;;;;;;4999802;28;20511;-72
2022/04/05 05:21:19;;;;;;;17.88;16.00;;;;;;;;;;4995385;28;20033;-72
2022/04/05 05:23:45;;;;;;;18.50;16.90;;;;;;;;;;4998160;28;20133;-72
2022/04/05 05:26:11;;;;;;;18.70;17.00;;;;;;;;;;4995070;28;20708;-72
2022/04/05 05:28:36;;;;;;;17.73;15.60;;;;;;;;;;4997914;28;20037;-72
2022/04/05 05:31:03;;;;;;;17.95;16.25;;;;;;;;;;4996069;28;20669;-72
2022/04/05 05:33:28;;;;;;;16.88;15.27;;;;;;;;;;5002916;28;20488;-72
2022/04/05 05:35:55;;;;;;;16.63;15.23;;;;;;;;;;5000045;28;20048;-72
2022/04/05 05:38:20;;;;;;;17.23;15.60;;;;;;;;;;4990329;28;20704;-72
2022/04/05 05:40:46;;;;;;;17.65;15.95;;;;;;;;;;4999500;28;20051;-72
2022/04/05 05:43:12;;;;;;;18.25;16.50;;;;;;;;;;5002844;28;20045;-72
2022/04/05 05:45:37;;;;;;;17.05;15.48;;;;;;;;;;4993052;28;20034;-72
2022/04/05 05:48:05;;;;;;;18.40;16.65;;;;;;;;;;4996525;28;20034;-72
2022/04/05 05:50:31;;;;;;;17.05;15.55;;;;;;;;;;4996669;28;20046;-72
2022/04/05 05:52:58;;;;;;;17.63;15.73;;;;;;;;;;5000856;28;20064;-72
2022/04/05 05:55:24;;;;;;;16.90;15.32;;;;;;;;;;5004289;28;20578;-73
2022/04/05 05:57:50;;;;;;;18.38;16.02;;;;;;;;;;5002882;28;20037;-73
2022/04/05 06:00:21;;;;;;;17.70;16.13;;;;;;;;;;4993247;28;20031;-73
2022/04/05 06:02:49;;;;;;;16.90;15.40;;;;;;;;;;4999868;28;20046;-72
2022/04/05 06:05:15;;;;;;;17.45;15.95;;;;;;;;;;4993710;28;20038;-73
2022/04/05 06:07:41;;;;;;;18.90;17.20;;;;;;;;;;4997828;28;20042;-72
2022/04/05 06:10:09;;;;;;;18.83;16.92;;;;;;;;;;5006208;28;20053;-72
2022/04/05 06:12:44;;;;;;;19.88;17.67;;;;;;;;;;4995131;28;20517;-72
2022/04/05 06:15:11;;;;;;;18.80;16.00;;;;;;;;;;5014696;28;20068;-72
2022/04/05 06:17:37;;;;;;;18.15;16.55;;;;;;;;;;4997393;28;20497;-72
2022/04/05 06:20:05;;;;;;;18.83;17.20;;;;;;;;;;5003915;28;20670;-73
2022/04/05 06:22:38;;;;;;;18.17;16.27;;;;;;;;;;5003227;28;20049;-74
2022/04/05 06:25:05;;;;;;;18.95;17.15;;;;;;;;;;4998352;28;20061;-74
2022/04/05 06:27:31;;;;;;;18.15;16.45;;;;;;;;;;5005467;28;20034;-73
2022/04/05 06:29:56;;;;;;;16.55;15.15;;;;;;;;;;4998010;28;20108;-72
2022/04/05 06:32:22;;;;;;;17.42;15.75;;;;;;;;;;4999209;28;20037;-72
2022/04/05 06:34:48;;;;;;;18.20;16.63;;;;;;;;;;4997426;28;20117;-72
2022/04/05 06:37:13;;;;;;;16.90;15.50;;;;;;;;;;4997621;28;20046;-73
2022/04/05 06:39:39;;;;;;;18.80;17.10;;;;;;;;;;4991808;28;20038;-71
2022/04/05 06:42:04;;;;;;;18.70;16.95;;;;;;;;;;4982157;28;20057;-71
2022/04/05 06:44:31;;;;;;;18.77;16.98;;;;;;;;;;4995452;28;20129;-72
2022/04/05 06:46:57;;;;;;;17.92;16.40;;;;;;;;;;5001465;28;20053;-72
2022/04/05 06:49:22;;;;;;;19.05;17.33;;;;;;;;;;4998441;28;20072;-72
2022/04/05 06:51:48;;;;;;;19.23;17.48;;;;;;;;;;5000246;28;20497;-72
2022/04/05 06:54:14;;;;;;;18.05;16.35;;;;;;;;;;4995778;28;20074;-72
2022/04/05 06:56:39;;;;;;;18.00;16.25;;;;;;;;;;4998698;28;20138;-73
2022/04/05 06:59:05;;;;;;;18.40;16.70;;;;;;;;;;5001853;28;20038;-73
2022/04/05 07:01:32;;;;;;;18.27;16.50;;;;;;;;;;5002025;28;20484;-73
2022/04/05 07:03:59;;;;;;;17.45;15.82;;;;;;;;;;4999481;28;20091;-73
2022/04/05 07:06:25;;;;;;;15.35;13.95;;;;;;;;;;4998729;28;20044;-73
2022/04/05 07:08:50;;;;;;;16.35;14.93;;;;;;;;;;4994430;28;20479;-73
2022/04/05 07:11:16;;;;;;;18.58;16.95;;;;;;;;;;4997919;28;20599;-72
2022/04/05 07:13:42;;;;;;;16.83;15.43;;;;;;;;;;5001034;28;20084;-72
2022/04/05 07:16:08;;;;;;;18.73;17.02;;;;;;;;;;5004667;28;20030;-72
2022/04/05 07:18:33;;;;;;;16.48;15.13;;;;;;;;;;4996215;28;20030;-72
2022/04/05 07:21:01;;;;;;;15.85;14.43;;;;;;;;;;4996156;28;20070;-73
2022/04/05 07:23:26;;;;;;;16.95;15.45;;;;;;;;;;5001786;28;20605;-73
2022/04/05 07:25:52;;;;;;;17.30;15.63;;;;;;;;;;5006065;28;20116;-73
2022/04/05 07:28:17;;;;;;;16.80;15.32;;;;;;;;;;5002599;28;20045;-73
2022/04/05 07:30:43;;;;;;;19.02;16.25;;;;;;;;;;5002114;28;20121;-73
2022/04/05 07:33:09;;;;;;;16.30;14.90;;;;;;;;;;5004044;28;20038;-73
2022/04/05 07:35:35;;;;;;;17.17;15.45;;;;;;;;;;4999809;28;20084;-73
2022/04/05 07:38:00;;;;;;;17.65;16.25;;;;;;;;;;5000596;28;20042;-72
2022/04/05 07:40:47;;;;;;;17.33;15.70;;;;;;;;;;5002884;28;20046;-72
2022/04/05 07:43:12;;;;;;;15.93;14.35;;;;;;;;;;4999437;28;20033;-75
2022/04/05 07:45:37;;;;;;;17.30;15.80;;;;;;;;;;4987495;28;20034;-73
2022/04/05 07:48:03;;;;;;;16.88;15.48;;;;;;;;;;5003232;28;20042;-73
2022/04/05 07:50:29;;;;;;;17.02;15.07;;;;;;;;;;5003528;28;20038;-73
2022/04/05 07:52:55;;;;;;;16.38;14.88;;;;;;;;;;5004894;28;20053;-73
2022/04/05 07:55:20;;;;;;;16.95;15.55;;;;;;;;;;5005954;28;20061;-73
2022/04/05 07:57:46;;;;;;;17.60;15.90;;;;;;;;;;5005036;28;20371;-72
2022/04/05 08:00:12;;;;;;;17.00;15.40;;;;;;;;;;5006641;28;20041;-73
2022/04/05 08:02:39;;;;;;;17.98;16.33;;;;;;;;;;5006998;28;20481;-73
2022/04/05 08:05:05;;;;;;;17.52;15.98;;;;;;;;;;5007005;28;20033;-72
2022/04/05 08:07:30;;;;;;;17.27;15.70;;;;;;;;;;5005484;28;20034;-73
2022/04/05 08:09:57;;;;;;;17.30;15.50;;;;;;;;;;5003738;28;20096;-73
2022/04/05 08:12:23;;;;;;;18.40;16.52;;;;;;;;;;5006346;28;20034;-72
2022/04/05 08:14:49;;;;;;;18.33;16.55;;;;;;;;;;5005148;28;20037;-73
2022/04/05 08:17:14;;;;;;;17.02;15.63;;;;;;;;;;5007463;28;20041;-72
2022/04/05 08:19:40;;;;;;;17.95;16.10;;;;;;;;;;5006194;28;20068;-72
2022/04/05 08:22:08;;;;;;;18.88;16.98;;;;;;;;;;5010146;28;20125;-73
2022/04/05 08:24:34;;;;;;;17.45;15.85;;;;;;;;;;5015423;28;20143;-72
2022/04/05 08:27:00;;;;;;;16.30;14.77;;;;;;;;;;5003783;28;20034;-72
2022/04/05 08:29:26;;;;;;;16.33;15.02;;;;;;;;;;4994008;28;20053;-75
2022/04/05 08:31:52;;;;;;;18.00;16.40;;;;;;;;;;4996266;28;20425;-74
2022/04/05 08:34:18;;;;;;;16.33;15.02;;;;;;;;;;5006757;28;20678;-75
2022/04/05 08:36:44;;;;;;;18.10;16.40;;;;;;;;;;5003383;28;20038;-75
2022/04/05 08:39:10;;;;;;;16.73;15.45;;;;;;;;;;5005181;28;20030;-75
2022/04/05 08:41:37;;;;;;;16.90;15.50;;;;;;;;;;5005493;28;20044;-74
2022/04/05 08:44:04;;;;;;;17.30;15.65;;;;;;;;;;4998198;28;20037;-76
2022/04/05 08:46:34;;;;;;;18.50;16.67;;;;;;;;;;5002136;28;20042;-76
2022/04/05 08:49:01;;;;;;;18.17;16.63;;;;;;;;;;4998626;28;20044;-76
2022/04/05 08:51:27;;;;;;;18.00;16.60;;;;;;;;;;4983932;28;20038;-75
2022/04/05 08:53:52;;;;;;;17.40;15.90;;;;;;;;;;5000952;28;20092;-75
2022/04/05 08:56:18;;;;;;;17.67;16.17;;;;;;;;;;5003422;28;20469;-76
2022/04/05 08:58:44;;;;;;;17.17;15.77;;;;;;;;;;5003969;28;20038;-75
2022/04/05 09:01:09;;;;;;;15.80;14.40;;;;;;;;;;5006101;28;20152;-76
2022/04/05 09:03:35;;;;;;;17.33;15.93;;;;;;;;;;5003979;28;20038;-76
2022/04/05 09:06:28;;;;;;;17.92;16.27;;;;;;;;;;5003420;28;20030;-76
2022/04/05 09:09:17;;;;;;;17.58;16.05;;;;;;;;;;5005479;28;20133;-75
2022/04/05 09:11:47;;;;;;;17.42;15.90;;;;;;;;;;5009629;28;20074;-75
2022/04/05 09:14:13;;;;;;;18.02;16.35;;;;;;;;;;5009599;28;20412;-76
2022/04/05 09:16:39;;;;;;;17.27;15.88;;;;;;;;;;5011908;28;20026;-75
2022/04/05 09:19:11;;;;;;;16.77;15.48;;;;;;;;;;5016653;28;20048;-76
2022/04/05 09:21:53;;;;;;;17.75;15.98;;;;;;;;;;5009908;28;20064;-76
2022/04/05 09:24:19;;;;;;;16.55;15.20;;;;;;;;;;5013570;28;20050;-77
2022/04/05 09:26:45;;;;;;;17.23;15.82;;;;;;;;;;5011417;28;20025;-77
2022/04/05 09:29:11;;;;;;;17.83;16.42;;;;;;;;;;5008736;28;20688;-76
2022/04/05 09:31:48;;;;;;;16.25;15.05;;;;;;;;;;5007732;28;20040;-77
2022/04/05 09:34:22;;;;;;;16.67;15.18;;;;;;;;;;5024137;28;20030;-77
2022/04/05 09:36:51;;;;;;;16.80;15.48;;;;;;;;;;5005183;28;20550;-77
2022/04/05 09:39:17;;;;;;;16.30;14.93;;;;;;;;;;5006221;28;20030;-76
2022/04/05 09:41:44;;;;;;;16.67;15.27;;;;;;;;;;5007481;28;20127;-77
2022/04/05 09:44:09;;;;;;;16.88;15.48;;;;;;;;;;5004409;28;20143;-78
2022/04/05 09:46:36;;;;;;;16.67;15.02;;;;;;;;;;5009220;28;20069;-77
2022/04/05 09:49:06;;;;;;;16.55;15.05;;;;;;;;;;5006024;28;20053;-77
2022/04/05 09:51:58;;;;;;;16.95;15.65;;;;;;;;;;5007765;28;20037;-76
2022/04/05 09:54:29;;;;;;;16.88;15.38;;;;;;;;;;4999835;28;20038;-76
2022/04/05 09:57:07;;;;;;;18.50;16.95;;;;;;;;;;5002513;28;20124;-77
2022/04/05 09:59:42;;;;;;;16.40;15.00;;;;;;;;;;5006789;28;20041;-78
2022/04/05 10:02:13;;;;;;;15.88;14.57;;;;;;;;;;5004025;28;20040;-76
2022/04/05 10:05:01;;;;;;;16.50;15.18;;;;;;;;;;5003028;28;20490;-77
2022/04/05 10:07:30;;;;;;;17.27;15.68;;;;;;;;;;5005525;28;20033;-76
2022/04/05 10:09:59;;;;;;;;;;;;;;;;;;5003052;28;20124;-77
2022/04/05 10:12:26;;;;;;;17.77;16.20;;;;;;;;;;5002492;28;19944;-78
2022/04/05 10:14:52;;;;;;;16.27;14.82;;;;;;;;;;5004630;28;20132;-78
2022/04/05 10:17:20;;;;;;;16.38;14.88;;;;;;;;;;5001824;28;20041;-77
2022/04/05 10:19:50;;;;;;;16.65;15.23;;;;;;;;;;5005916;28;20041;-76
2022/04/05 10:22:17;;;;;;;17.17;15.68;;;;;;;;;;5003757;28;20033;-76
2022/04/05 10:24:45;;;;;;;16.75;15.35;;;;;;;;;;4987430;28;20038;-76
2022/04/05 10:27:11;;;;;;;16.90;15.40;;;;;;;;;;4998378;28;20065;-75
2022/04/05 10:29:37;;;;;;;16.25;15.00;;;;;;;;;;5003171;28;20061;-76
2022/04/05 10:32:31;;;;;;;16.83;15.23;;;;;;;;;;5002131;28;20038;-74
2022/04/05 10:35:03;;;;;;;16.13;14.63;;;;;;;;;;4995520;28;20043;-75
2022/04/05 10:37:33;;;;;;;16.92;15.30;;;;;;;;;;4994179;28;20041;-75
2022/04/05 10:39:59;;;;;;;16.55;15.15;;;;;;;;;;4992572;28;20046;-75
2022/04/05 10:42:32;;;;;;;16.92;15.57;;;;;;;;;;4991499;28;20038;-75
2022/04/05 10:45:19;;;;;;;17.50;16.10;;;;;;;;;;5008133;28;20061;-76
2022/04/05 10:48:01;;;;;;;15.70;14.50;;;;;;;;;;5001591;28;20041;-76
2022/04/05 10:50:27;;;;;;;17.48;15.98;;;;;;;;;;5001920;28;20996;-75
2022/04/05 10:53:17;;;;;;;18.70;17.20;;;;;;;;;;5005523;28;20038;-75
2022/04/05 10:56:05;;;;;;;16.70;15.32;;;;;;;;;;5005211;28;20030;-74
2022/04/05 10:58:39;;;;;;;18.60;16.75;;;;;;;;;;5003488;28;20045;-75
2022/04/05 11:01:18;;;;;;;17.10;15.50;;;;;;;;;;5004058;28;20516;-75
2022/04/05 11:04:14;;;;;;;16.85;15.25;;;;;;;;;;5002943;28;20596;-76
2022/04/05 11:06:58;;;;;;;17.42;15.93;;;;;;;;;;5005407;28;20044;-75
2022/04/05 11:09:28;;;;;;;17.08;15.48;;;;;;;;;;5004671;28;20065;-75
2022/04/05 11:11:55;;;;;;;17.92;16.42;;;;;;;;;;5005267;28;20029;-75
2022/04/05 11:14:42;;;;;;;16.48;15.18;;;;;;;;;;5001660;28;20046;-75
2022/04/05 11:17:12;;;;;;;16.63;15.20;;;;;;;;;;5002852;28;20038;-74
2022/04/05 11:19:40;;;;;;;16.10;14.60;;;;;;;;;;5005700;28;20045;-75
2022/04/05 11:22:26;;;;;;;17.15;15.70;;;;;;;;;;5003134;28;20040;-76
2022/04/05 11:24:53;;;;;;;16.08;14.68;;;;;;;;;;5006185;28;20124;-76
2022/04/05 11:27:28;;;;;;;17.00;15.68;;;;;;;;;;5002773;28;20038;-74
2022/04/05 11:30:19;;;;;;;16.15;14.85;;;;;;;;;;4983456;28;20480;-75
2022/04/05 11:33:08;;;;;;;16.48;14.98;;;;;;;;;;4994443;28;20128;-75
2022/04/05 11:35:43;;;;;;;16.58;15.18;;;;;;;;;;5005746;28;20044;-74
2022/04/05 11:38:28;;;;;;;18.25;16.83;;;;;;;;;;4987892;28;20108;-74
2022/04/05 11:41:17;;;;;;;17.33;15.85;;;;;;;;;;5004994;28;20045;-76
2022/04/05 11:43:46;;;;;;;18.05;16.27;;;;;;;;;;4999319;28;20750;-76
2022/04/05 11:46:28;;;;;;;15.68;14.50;;;;;;;;;;5000554;28;20121;-75
2022/04/05 11:48:59;;;;;;;15.52;14.32;;;;;;;;;;4998930;28;20042;-76
2022/04/05 11:51:27;;;;;;;17.85;16.40;;;;;;;;;;5004911;28;20480;-76
2022/04/05 11:54:11;;;;;;;16.85;15.48;;;;;;;;;;5003559;28;20034;-76
2022/04/05 11:56:41;;;;;;;17.33;15.75;;;;;;;;;;5002431;28;20509;-76
2022/04/05 11:59:09;;;;;;;17.67;16.02;;;;;;;;;;4995791;28;20146;-76
2022/04/05 12:01:40;;;;;;;17.92;16.45;;;;;;;;;;5005824;28;20583;-76
2022/04/05 12:04:23;;;;;;;17.17;15.65;;;;;;;;;;4997420;28;20302;-74
2022/04/05 12:06:58;;;;;;;16.95;15.48;;;;;;;;;;4991615;28;20076;-75
2022/04/05 12:09:26;;;;;;;16.35;14.93;;;;;;;;;;4997268;28;20106;-76
2022/04/05 12:11:52;;;;;;;16.52;15.32;;;;;;;;;;5001172;28;20045;-77
2022/04/05 12:14:21;;;;;;;16.63;15.23;;;;;;;;;;5000429;28;20042;-75
2022/04/05 12:16:54;;;;;;;18.40;16.90;;;;;;;;;;4999790;28;20496;-74
2022/04/05 12:19:34;;;;;;;15.38;14.18;;;;;;;;;;4992496;28;20034;-75
2022/04/05 12:22:05;;;;;;;15.80;14.18;;;;;;;;;;5005668;28;20093;-78
2022/04/05 12:24:33;;;;;;;15.60;14.40;;;;;;;;;;5006169;28;20069;-75
2022/04/05 12:27:00;;;;;;;15.60;14.32;;;;;;;;;;5005263;28;20255;-75
2022/04/05 12:29:28;;;;;;;16.30;14.93;;;;;;;;;;5000089;28;20053;-77
2022/04/05 12:31:54;;;;;;;15.80;14.40;;;;;;;;;;5000071;28;20756;-77
2022/04/05 12:34:21;;;;;;;15.93;14.57;;;;;;;;;;5005805;28;20125;-76
2022/04/05 12:36:55;;;;;;;15.77;14.57;;;;;;;;;;5004432;28;20113;-77
2022/04/05 12:39:27;;;;;;;16.23;14.90;;;;;;;;;;4985534;28;20132;-79
2022/04/05 12:41:56;;;;;;;16.48;14.98;;;;;;;;;;5001653;28;20503;-76
2022/04/05 12:44:27;;;;;;;16.10;14.52;;;;;;;;;;5018544;28;20042;-77
2022/04/05 12:46:56;;;;;;;16.83;15.32;;;;;;;;;;5005744;28;20531;-75
2022/04/05 12:49:32;;;;;;;15.73;14.32;;;;;;;;;;5005114;28;20478;-76
2022/04/05 12:52:20;;;;;;;15.25;14.05;;;;;;;;;;5006934;28;20026;-75
2022/04/05 12:54:51;;;;;;;16.17;14.77;;;;;;;;;;5001549;28;20108;-77
2022/04/05 12:57:24;;;;;;;14.68;13.48;;;;;;;;;;5003073;28;20042;-76
2022/04/05 12:59:53;;;;;;;15.48;14.27;;;;;;;;;;5003960;28;20056;-76
2022/04/05 13:02:21;;;;;;;15.55;14.35;;;;;;;;;;5003059;28;20088;-76
2022/04/05 13:04:47;;;;;;;15.85;14.45;;;;;;;;;;5005216;28;20041;-76
2022/04/05 13:07:14;;;;;;;15.00;13.80;;;;;;;;;;5004811;28;20116;-75
2022/04/05 13:09:40;;;;;;;14.90;13.73;;;;;;;;;;5004193;28;20032;-77
2022/04/05 13:12:17;;;;;;;15.77;14.57;;;;;;;;;;5002215;28;20033;-76
2022/04/05 13:14:44;;;;;;;15.27;14.07;;;;;;;;;;5005301;28;20041;-77
2022/04/05 13:17:11;;;;;;;15.27;13.77;;;;;;;;;;4987319;28;20034;-77
2022/04/05 13:19:37;;;;;;;14.85;13.57;;;;;;;;;;5002748;28;20033;-78
2022/04/05 13:22:13;;;;;;;14.75;13.52;;;;;;;;;;4988123;28;20049;-76
2022/04/05 13:24:44;;;;;;;13.93;12.85;;;;;;;;;;4992171;28;20045;-77
2022/04/05 13:27:11;;;;;;;14.20;13.10;;;;;;;;;;4999380;28;20165;-77
2022/04/05 13:29:42;;;;;;;13.70;12.60;;;;;;;;;;4996700;28;20039;-77
2022/04/05 13:32:14;;;;;;;13.68;12.57;;;;;;;;;;4993501;28;20465;-76
2022/04/05 13:34:40;;;;;;;13.68;12.77;;;;;;;;;;5001366;28;20497;-77
2022/04/05 13:37:07;;;;;;;13.02;11.93;;;;;;;;;;5005878;28;20126;-78
2022/04/05 13:39:35;;;;;;;13.18;12.00;;;;;;;;;;5004720;28;20781;-77
2022/04/05 13:42:13;;;;;;;14.07;12.55;;;;;;;;;;5000559;28;20113;-77
2022/04/05 13:44:41;;;;;;;13.40;12.18;;;;;;;;;;4999839;28;20037;-76
2022/04/05 13:47:08;;;;;;;13.48;12.27;;;;;;;;;;4985621;28;20026;-76
2022/04/05 13:49:33;;;;;;;13.50;12.40;;;;;;;;;;4993930;28;20038;-76
2022/04/05 13:51:59;;;;;;;14.05;12.73;;;;;;;;;;5000248;28;20113;-76
2022/04/05 13:54:26;;;;;;;12.30;11.30;;;;;;;;;;4997776;28;20393;-76
2022/04/05 13:56:52;;;;;;;12.02;11.10;;;;;;;;;;4991061;28;20085;-76
2022/04/05 13:59:17;;;;;;;12.23;11.15;;;;;;;;;;4999055;28;20066;-75
2022/04/05 14:01:44;;;;;;;12.35;11.13;;;;;;;;;;4993268;28;20069;-75
2022/04/05 14:04:10;;;;;;;13.35;12.15;;;;;;;;;;4988938;28;20158;-76
2022/04/05 14:06:37;;;;;;;11.77;10.95;;;;;;;;;;4997836;28;20276;-76
2022/04/05 14:09:07;;;;;;;12.82;11.63;;;;;;;;;;4994334;28;20034;-76
2022/04/05 14:11:33;;;;;;;12.93;11.82;;;;;;;;;;4996647;28;20549;-76
2022/04/05 14:14:00;;;;;;;12.43;11.43;;;;;;;;;;4992585;28;20034;-75
2022/04/05 14:16:27;;;;;;;12.93;11.93;;;;;;;;;;4991304;28;20133;-76
2022/04/05 14:18:53;;;;;;;11.55;10.75;;;;;;;;;;5005854;28;20042;-76
2022/04/05 14:21:22;;;;;;;11.98;11.07;;;;;;;;;;5000874;28;20073;-76
2022/04/05 14:23:48;;;;;;;12.25;11.30;;;;;;;;;;5004062;28;20322;-76
2022/04/05 14:26:14;;;;;;;12.70;11.65;;;;;;;;;;5001832;28;20030;-76
2022/04/05 14:28:40;;;;;;;12.10;11.20;;;;;;;;;;4997094;28;20029;-76